createdAt,value
2019-01-12T00:02:04.817Z,40.83
2019-01-12T00:04:34.057Z,27.93
2019-01-12T00:07:03.302Z,42.20
2019-01-12T00:09:32.635Z,32.87
2019-01-12T00:12:01.858Z,28.93
2019-01-12T00:14:31.082Z,24.33
2019-01-12T00:17:00.382Z,36.70
2019-01-12T00:19:29.691Z,32.07
2019-01-12T00:21:58.923Z,34.63
2019-01-12T00:24:31.774Z,31.97
2019-01-12T00:26:59.254Z,23.37
2019-01-12T00:29:28.522Z,35.77
2019-01-12T00:31:57.822Z,39.53
2019-01-12T00:34:27.035Z,34.00
2019-01-12T00:36:56.262Z,32.60
2019-01-12T00:39:25.711Z,28.67
2019-01-12T00:41:54.995Z,33.07
2019-01-12T00:44:24.206Z,28.93
2019-01-12T00:46:53.456Z,29.83
2019-01-12T00:49:22.703Z,19.80
2019-01-12T00:51:51.953Z,35.77
2019-01-12T00:54:20.695Z,35.57
2019-01-12T00:56:49.905Z,32.33
2019-01-12T00:59:19.154Z,23.30
2019-01-12T01:01:48.410Z,26.07
2019-01-12T01:04:17.718Z,35.87
2019-01-12T01:06:47.103Z,30.90
2019-01-12T01:09:16.374Z,27.33
2019-01-12T01:11:45.610Z,27.50
2019-01-12T01:14:14.838Z,40.50
2019-01-12T01:16:44.087Z,30.80
2019-01-12T01:19:13.316Z,33.13
2019-01-12T01:21:42.581Z,30.03
2019-01-12T01:24:11.881Z,30.57
2019-01-12T01:26:41.131Z,27.53
2019-01-12T01:29:10.356Z,31.87
2019-01-12T01:31:39.642Z,45.27
2019-01-12T01:34:08.862Z,31.60
2019-01-12T01:36:38.100Z,29.90
2019-01-12T01:39:09.243Z,33.93
2019-01-12T01:41:38.478Z,29.60
2019-01-12T01:44:07.720Z,42.13
2019-01-12T01:46:37.054Z,38.37
2019-01-12T01:49:06.320Z,31.37
2019-01-12T01:51:35.555Z,33.17
2019-01-12T01:54:04.967Z,24.87
2019-01-12T01:56:35.473Z,42.67
2019-01-12T01:59:04.792Z,36.77
2019-01-12T02:01:34.386Z,33.90
2019-01-12T02:04:03.782Z,33.37
2019-01-12T02:06:33.091Z,23.43
2019-01-12T02:09:04.097Z,40.47
2019-01-12T02:11:33.383Z,26.37
2019-01-12T02:14:02.614Z,27.93
2019-01-12T02:16:31.946Z,25.37
2019-01-12T02:19:01.235Z,30.23
2019-01-12T02:21:30.535Z,29.00
2019-01-12T02:23:59.910Z,34.53
2019-01-12T02:26:29.108Z,28.50
2019-01-12T02:28:58.345Z,32.63
2019-01-12T02:31:27.596Z,29.27
2019-01-12T02:33:56.872Z,35.73
2019-01-12T02:36:26.141Z,29.23
2019-01-12T02:38:57.161Z,34.03
2019-01-12T02:41:26.398Z,21.30
2019-01-12T02:43:55.597Z,26.80
2019-01-12T02:46:24.854Z,19.70
2019-01-12T02:48:54.075Z,28.40
2019-01-12T02:51:23.368Z,30.50
2019-01-12T02:53:52.667Z,36.63
2019-01-12T02:56:21.894Z,34.17
2019-01-12T02:58:51.197Z,28.73
2019-01-12T03:01:20.485Z,33.83
2019-01-12T03:03:49.778Z,27.57
2019-01-12T03:06:19.068Z,26.90
2019-01-12T03:08:48.387Z,28.53
2019-01-12T03:11:17.698Z,32.97
2019-01-12T03:13:47.246Z,30.57
2019-01-12T03:16:16.491Z,23.33
2019-01-12T03:18:45.719Z,24.83
2019-01-12T03:21:15.006Z,29.10
2019-01-12T03:23:44.236Z,29.93
2019-01-12T03:26:13.469Z,29.97
2019-01-12T03:28:42.716Z,30.27
2019-01-12T03:31:12.000Z,31.87
2019-01-12T03:33:41.233Z,27.93
2019-01-12T03:36:10.695Z,27.37
2019-01-12T03:38:40.010Z,24.47
2019-01-12T03:41:09.218Z,34.27
2019-01-12T03:43:38.477Z,34.40
2019-01-12T03:46:07.787Z,34.27
2019-01-12T03:48:37.054Z,25.33
2019-01-12T03:51:06.264Z,39.70
2019-01-12T03:53:35.536Z,26.57
2019-01-12T03:56:05.335Z,38.17
2019-01-12T03:58:34.583Z,23.73
2019-01-12T04:01:03.994Z,26.43
2019-01-12T04:03:33.280Z,31.53
2019-01-12T04:06:02.488Z,26.90
2019-01-12T04:08:31.842Z,30.70
2019-01-12T04:11:01.126Z,28.73
2019-01-12T04:13:30.353Z,28.53
2019-01-12T04:15:59.628Z,26.90
2019-01-12T04:18:28.950Z,20.67
2019-01-12T04:20:58.247Z,35.73
2019-01-12T04:23:27.498Z,34.37
2019-01-12T04:25:57.688Z,30.43
2019-01-12T04:28:26.973Z,25.90
2019-01-12T04:30:56.320Z,24.57
2019-01-12T04:33:25.569Z,19.87
2019-01-12T04:35:54.833Z,17.87
2019-01-12T04:38:24.102Z,18.43
2019-01-12T04:40:53.314Z,16.53
2019-01-12T04:43:22.539Z,19.90
2019-01-12T04:45:51.899Z,15.90
2019-01-12T04:48:21.127Z,16.40
2019-01-12T04:50:50.525Z,15.97
2019-01-12T04:53:19.798Z,16.17
2019-01-12T04:55:49.042Z,18.60
2019-01-12T04:58:18.329Z,14.47
2019-01-12T05:00:47.629Z,20.93
2019-01-12T05:03:16.949Z,23.13
2019-01-12T05:05:46.273Z,12.30
2019-01-12T05:08:15.554Z,14.00
2019-01-12T05:10:44.767Z,22.80
2019-01-12T05:13:14.098Z,18.60
2019-01-12T05:15:43.362Z,22.13
2019-01-12T05:18:12.595Z,19.17
2019-01-12T05:20:41.814Z,22.70
2019-01-12T05:23:11.161Z,21.73
2019-01-12T05:25:40.421Z,25.67
2019-01-12T05:28:09.605Z,20.27
2019-01-12T05:30:38.970Z,27.23
2019-01-12T05:33:08.224Z,22.57
2019-01-12T05:35:37.434Z,21.90
2019-01-12T05:38:06.758Z,26.13
2019-01-12T05:40:36.086Z,28.27
2019-01-12T05:43:05.295Z,23.97
2019-01-12T05:45:34.565Z,21.20
2019-01-12T05:48:03.802Z,21.70
2019-01-12T05:50:33.171Z,21.60
2019-01-12T05:53:02.431Z,18.27
2019-01-12T05:55:31.749Z,22.80
2019-01-12T05:58:00.977Z,25.63
2019-01-12T06:00:30.343Z,16.20
2019-01-12T06:02:59.590Z,17.97
2019-01-12T06:05:28.886Z,21.90
2019-01-12T06:07:58.256Z,31.83
2019-01-12T06:10:27.467Z,17.80
2019-01-12T06:12:56.698Z,21.67
2019-01-12T06:15:26.064Z,21.27
2019-01-12T06:17:56.383Z,17.30
2019-01-12T06:20:25.610Z,15.97
2019-01-12T06:22:54.861Z,30.13
2019-01-12T06:25:24.071Z,19.83
2019-01-12T06:27:53.359Z,20.20
2019-01-12T06:30:22.618Z,23.10
2019-01-12T06:32:51.878Z,17.00
2019-01-12T06:35:21.135Z,21.67
2019-01-12T06:37:50.422Z,14.37
2019-01-12T06:40:20.179Z,19.00
2019-01-12T06:42:49.620Z,16.13
2019-01-12T06:45:19.295Z,21.77
2019-01-12T06:47:48.537Z,70.90
2019-01-12T06:50:18.968Z,20.80
2019-01-12T06:52:48.453Z,21.23
2019-01-12T06:55:17.685Z,16.03
2019-01-12T06:57:46.979Z,15.37
2019-01-12T07:00:20.607Z,43.67
2019-01-12T07:02:49.847Z,45.43
2019-01-12T07:05:19.092Z,36.33
2019-01-12T07:07:48.344Z,54.83
2019-01-12T07:10:17.574Z,75.30
2019-01-12T07:12:46.809Z,26.77
2019-01-12T07:15:16.142Z,25.90
2019-01-12T07:17:45.342Z,20.90
2019-01-12T07:20:16.087Z,17.07
2019-01-12T07:22:46.349Z,21.80
2019-01-12T07:25:15.879Z,21.33
2019-01-12T07:27:45.138Z,16.37
2019-01-12T07:30:22.511Z,14.27
2019-01-12T07:32:51.817Z,17.23
2019-01-12T07:35:21.057Z,9.77
2019-01-12T07:37:50.333Z,11.87
2019-01-12T07:40:19.561Z,11.13
2019-01-12T07:42:48.793Z,23.07
2019-01-12T07:45:18.175Z,16.33
2019-01-12T07:47:47.418Z,16.67
2019-01-12T07:50:16.906Z,10.63
2019-01-12T07:52:46.162Z,13.93
2019-01-12T07:55:15.508Z,16.23
2019-01-12T07:57:44.754Z,11.23
2019-01-12T08:00:19.335Z,10.33
2019-01-12T08:02:48.571Z,9.17
2019-01-12T08:05:18.054Z,9.30
2019-01-12T08:07:47.380Z,9.77
2019-01-12T08:10:19.571Z,12.60
2019-01-12T08:12:48.856Z,5.87
2019-01-12T08:15:18.461Z,14.33
2019-01-12T08:17:47.721Z,8.63
2019-01-12T08:20:17.046Z,9.50
2019-01-12T08:22:46.306Z,5.67
2019-01-12T08:25:15.522Z,7.40
2019-01-12T08:27:44.742Z,7.73
2019-01-12T08:30:16.509Z,7.67
2019-01-12T08:32:45.897Z,6.13
2019-01-12T08:35:16.377Z,4.70
2019-01-12T08:37:45.655Z,8.87
2019-01-12T08:40:14.909Z,8.00
2019-01-12T08:42:44.170Z,21.80
2019-01-12T08:45:13.426Z,16.53
2019-01-12T08:47:42.702Z,12.73
2019-01-12T08:50:17.561Z,14.00
2019-01-12T08:52:47.013Z,27.57
2019-01-12T08:55:16.440Z,9.73
2019-01-12T08:57:45.710Z,9.10
2019-01-12T09:00:20.275Z,7.77
2019-01-12T09:02:49.517Z,5.73
2019-01-12T09:05:18.760Z,6.30
2019-01-12T09:07:48.005Z,17.73
2019-01-12T09:10:19.812Z,17.73
2019-01-12T09:12:49.246Z,6.87
2019-01-12T09:15:18.486Z,13.60
2019-01-12T09:17:47.758Z,11.93
2019-01-12T09:20:17.108Z,4.63
2019-01-12T09:22:49.362Z,4.07
2019-01-12T09:25:18.655Z,4.00
2019-01-12T09:27:47.909Z,8.27
2019-01-12T09:30:22.013Z,10.50
2019-01-12T09:32:51.683Z,6.70
2019-01-12T09:35:20.972Z,17.73
2019-01-12T09:37:50.455Z,9.93
2019-01-12T09:40:21.575Z,5.00
2019-01-12T09:42:51.034Z,4.20
2019-01-12T09:45:20.670Z,4.33
2019-01-12T09:47:50.112Z,5.23
2019-01-12T09:50:20.650Z,4.70
2019-01-12T09:52:51.465Z,4.27
2019-01-12T09:55:20.685Z,5.87
2019-01-12T09:57:49.982Z,5.80
2019-01-12T10:00:21.390Z,3.10
2019-01-12T10:02:50.606Z,10.27
2019-01-12T10:05:19.876Z,7.73
2019-01-12T10:07:52.200Z,17.60
2019-01-12T10:10:21.901Z,29.47
2019-01-12T10:12:51.176Z,13.48
2019-01-12T10:15:20.656Z,18.20
2019-01-12T10:17:49.963Z,13.67
2019-01-12T10:20:19.979Z,15.10
2019-01-12T10:22:49.286Z,8.60
2019-01-12T10:25:18.864Z,11.57
2019-01-12T10:27:48.243Z,14.97
2019-01-12T10:30:19.881Z,10.13
2019-01-12T10:32:49.214Z,13.23
2019-01-12T10:35:18.552Z,16.77
2019-01-12T10:37:48.150Z,20.97
2019-01-12T10:40:17.654Z,3.93
2019-01-12T10:42:47.233Z,13.83
2019-01-12T10:45:17.373Z,11.23
2019-01-12T10:47:47.141Z,8.17
2019-01-12T10:50:19.974Z,10.40
2019-01-12T10:52:49.244Z,13.10
2019-01-12T10:55:18.627Z,11.60
2019-01-12T10:57:47.950Z,14.37
2019-01-12T11:00:21.127Z,11.10
2019-01-12T11:02:50.355Z,9.90
2019-01-12T11:05:20.941Z,4.73
2019-01-12T11:07:50.613Z,7.73
2019-01-12T11:10:20.939Z,15.47
2019-01-12T11:12:50.173Z,16.87
2019-01-12T11:15:20.325Z,31.90
2019-01-12T11:17:49.778Z,3.93
2019-01-12T11:20:19.185Z,13.60
2019-01-12T11:22:48.579Z,7.03
2019-01-12T11:25:17.801Z,14.07
2019-01-12T11:27:47.043Z,8.67
2019-01-12T11:30:18.622Z,6.60
2019-01-12T11:32:48.029Z,8.43
2019-01-12T11:35:17.424Z,17.87
2019-01-12T11:37:46.999Z,10.87
2019-01-12T11:40:20.733Z,13.90
2019-01-12T11:42:52.415Z,12.33
2019-01-12T11:45:22.494Z,8.30
2019-01-12T11:47:52.586Z,10.17
2019-01-12T11:50:21.835Z,11.20
2019-01-12T11:52:51.056Z,13.90
2019-01-12T11:55:20.723Z,13.73
2019-01-12T11:57:50.171Z,8.27
2019-01-12T12:00:24.658Z,6.70
2019-01-12T12:02:54.016Z,8.40
2019-01-12T12:05:23.282Z,8.23
2019-01-12T12:07:52.814Z,10.97
2019-01-12T12:10:22.619Z,19.30
2019-01-12T12:12:52.004Z,20.10
2019-01-12T12:15:22.383Z,12.13
2019-01-12T12:17:51.687Z,10.87
2019-01-12T12:20:23.422Z,9.83
2019-01-12T12:22:52.895Z,10.37
2019-01-12T12:25:22.316Z,18.37
2019-01-12T12:27:51.838Z,13.63
2019-01-12T12:30:29.250Z,15.87
2019-01-12T12:32:58.863Z,9.23
2019-01-12T12:35:28.202Z,9.67
2019-01-12T12:37:57.514Z,13.80
2019-01-12T12:40:26.966Z,11.93
2019-01-12T12:42:56.277Z,11.10
2019-01-12T12:45:28.570Z,14.10
2019-01-12T12:47:57.890Z,17.47
2019-01-12T12:50:27.202Z,12.97
2019-01-12T12:52:56.609Z,18.00
2019-01-12T12:55:26.134Z,9.70
2019-01-12T12:57:55.378Z,10.70
2019-01-12T13:00:26.777Z,10.20
2019-01-12T13:02:56.107Z,10.17
2019-01-12T13:05:25.521Z,12.57
2019-01-12T13:07:54.810Z,12.33
2019-01-12T13:10:26.451Z,13.63
2019-01-12T13:12:55.720Z,11.73
2019-01-12T13:15:25.074Z,17.10
2019-01-12T13:17:54.341Z,18.40
2019-01-12T13:20:23.747Z,13.20
2019-01-12T13:22:53.114Z,13.87
2019-01-12T13:25:22.445Z,16.93
2019-01-12T13:27:51.765Z,15.60
2019-01-12T13:30:23.314Z,12.53
2019-01-12T13:32:52.635Z,15.40
2019-01-12T13:35:22.425Z,14.97
2019-01-12T13:37:51.861Z,13.93
2019-01-12T13:40:23.643Z,10.80
2019-01-12T13:42:52.941Z,10.40
2019-01-12T13:45:22.612Z,11.57
2019-01-12T13:47:52.303Z,19.27
2019-01-12T13:50:23.734Z,12.67
2019-01-12T13:52:53.137Z,11.57
2019-01-12T13:55:22.479Z,11.93
2019-01-12T13:57:51.941Z,14.23
2019-01-12T14:00:32.501Z,15.80
2019-01-12T14:03:01.894Z,12.77
2019-01-12T14:05:31.416Z,22.20
2019-01-12T14:08:00.835Z,32.93
2019-01-12T14:10:30.190Z,22.13
2019-01-12T14:12:59.429Z,17.07
2019-01-12T14:15:28.700Z,11.30
2019-01-12T14:17:58.031Z,14.10
2019-01-12T14:20:36.136Z,13.90
2019-01-12T14:26:50.569Z,11.73
2019-01-12T14:29:20.003Z,13.87
2019-01-12T14:31:49.389Z,12.27
2019-01-12T14:34:18.904Z,12.93
2019-01-12T14:36:48.215Z,19.87
2019-01-12T14:39:18.125Z,16.03
2019-01-12T14:41:47.472Z,15.80
2019-01-12T14:44:16.797Z,15.08
2019-01-12T14:46:46.035Z,15.60
2019-01-12T14:49:15.429Z,16.60
2019-01-12T14:52:34.797Z,16.97
2019-01-12T14:55:13.311Z,36.87
2019-01-12T14:58:08.662Z,34.03
2019-01-12T15:00:45.927Z,25.23
2019-01-12T15:03:32.307Z,15.90
2019-01-12T15:06:01.651Z,13.47
2019-01-12T15:08:30.961Z,13.83
2019-01-12T15:11:00.303Z,93.00
2019-01-12T15:13:29.612Z,48.73
2019-01-12T15:15:58.922Z,26.43
2019-01-12T15:18:41.280Z,17.20
2019-01-12T15:21:10.522Z,17.00
2019-01-12T15:24:24.858Z,12.57
2019-01-12T15:26:54.203Z,10.50
2019-01-12T15:29:23.506Z,9.77
2019-01-12T15:31:52.889Z,10.70
2019-01-12T15:34:22.281Z,10.23
2019-01-12T15:36:51.618Z,16.73
2019-01-12T15:39:21.077Z,12.00
2019-01-12T15:41:50.442Z,12.33
2019-01-12T15:44:20.090Z,15.67
2019-01-12T15:46:49.394Z,10.23
2019-01-12T15:49:18.661Z,14.33
2019-01-12T15:51:52.820Z,15.27
2019-01-12T15:54:42.511Z,11.77
2019-01-12T15:57:11.797Z,9.67
2019-01-12T15:59:41.085Z,10.07
2019-01-12T16:02:10.395Z,16.43
2019-01-12T16:04:39.753Z,10.40
2019-01-12T16:07:09.058Z,8.47
2019-01-12T16:09:38.498Z,14.10
2019-01-12T16:12:07.768Z,17.80
2019-01-12T16:14:37.122Z,13.23
2019-01-12T16:17:06.419Z,17.20
2019-01-12T16:19:35.760Z,74.00
2019-01-12T16:22:05.107Z,24.03
2019-01-12T16:24:53.588Z,15.43
2019-01-12T16:27:23.014Z,12.33
2019-01-12T16:29:52.428Z,18.77
2019-01-12T16:32:21.968Z,14.37
2019-01-12T16:34:51.229Z,12.20
2019-01-12T16:37:20.518Z,16.47
2019-01-12T16:39:49.933Z,11.23
2019-01-12T16:42:19.262Z,16.87
2019-01-12T16:44:48.574Z,12.17
2019-01-12T16:47:17.974Z,13.67
2019-01-12T16:49:47.418Z,9.70
2019-01-12T16:52:16.677Z,11.93
2019-01-12T16:54:46.065Z,13.47
2019-01-12T16:57:15.368Z,34.40
2019-01-12T16:59:44.616Z,22.27
2019-01-12T17:02:14.038Z,19.37
2019-01-12T17:04:43.319Z,25.37
2019-01-12T17:07:12.711Z,21.60
2019-01-12T17:09:42.011Z,16.50
2019-01-12T17:12:11.317Z,14.20
2019-01-12T17:14:40.634Z,22.23
2019-01-12T17:17:10.006Z,23.13
2019-01-12T17:19:39.322Z,14.37
2019-01-12T17:22:08.634Z,18.87
2019-01-12T17:24:37.986Z,18.93
2019-01-12T17:27:07.409Z,14.63
2019-01-12T17:29:36.656Z,14.30
2019-01-12T17:32:06.076Z,51.87
2019-01-12T17:34:35.353Z,22.57
2019-01-12T17:37:04.663Z,15.37
2019-01-12T17:39:34.037Z,14.73
2019-01-12T17:42:03.310Z,19.10
2019-01-12T17:45:33.999Z,9.27
2019-01-12T17:48:03.809Z,16.93
2019-01-12T17:50:33.233Z,22.67
2019-01-12T17:53:02.565Z,9.80
2019-01-12T17:55:31.846Z,9.90
2019-01-12T17:58:01.251Z,16.53
2019-01-12T18:00:59.058Z,25.00
2019-01-12T18:03:28.538Z,14.07
2019-01-12T18:05:57.936Z,31.63
2019-01-12T18:08:27.236Z,20.37
2019-01-12T18:10:56.492Z,16.00
2019-01-12T18:13:25.897Z,12.50
2019-01-12T18:15:55.269Z,15.28
2019-01-12T18:18:24.613Z,12.90
2019-01-12T18:20:53.970Z,16.23
2019-01-12T18:23:23.234Z,10.30
2019-01-12T18:25:52.605Z,11.50
2019-01-12T18:28:21.907Z,10.63
2019-01-12T18:30:51.215Z,10.17
2019-01-12T18:33:20.567Z,9.10
2019-01-12T18:35:49.991Z,16.97
2019-01-12T18:38:19.241Z,11.13
2019-01-12T18:40:48.598Z,10.60
2019-01-12T18:43:17.922Z,9.93
2019-01-12T18:45:47.267Z,13.67
2019-01-12T18:48:16.534Z,11.23
2019-01-12T18:50:45.814Z,11.63
2019-01-12T18:53:15.066Z,12.73
2019-01-12T18:55:44.379Z,15.33
2019-01-12T18:58:13.607Z,10.27
2019-01-12T19:00:42.846Z,14.37
2019-01-12T19:03:12.172Z,14.17
2019-01-12T19:05:41.477Z,10.80
2019-01-12T19:08:10.787Z,10.50
2019-01-12T19:10:40.097Z,10.53
2019-01-12T19:13:09.457Z,9.80
2019-01-12T19:15:38.711Z,10.77
2019-01-12T19:18:07.978Z,16.13
2019-01-12T19:20:37.233Z,10.20
2019-01-12T19:23:06.477Z,16.03
2019-01-12T19:25:35.791Z,12.43
2019-01-12T19:28:05.058Z,11.07
2019-01-12T19:30:34.574Z,8.93
2019-01-12T19:33:03.869Z,7.93
2019-01-12T19:35:33.206Z,11.07
2019-01-12T19:38:02.550Z,12.03
2019-01-12T19:40:31.814Z,11.07
2019-01-12T19:43:01.139Z,10.80
2019-01-12T19:45:30.454Z,10.30
2019-01-12T19:47:59.756Z,13.83
2019-01-12T19:50:29.199Z,11.13
2019-01-12T19:52:58.622Z,8.17
2019-01-12T19:55:27.915Z,10.77
2019-01-12T19:57:57.154Z,11.90
2019-01-12T20:00:29.133Z,11.17
2019-01-12T20:02:58.398Z,9.33
2019-01-12T20:05:27.621Z,10.03
2019-01-12T20:07:56.903Z,8.33
2019-01-12T20:10:26.225Z,6.13
2019-01-12T20:12:55.607Z,7.23
2019-01-12T20:15:25.757Z,9.17
2019-01-12T20:17:55.266Z,10.63
2019-01-12T20:20:24.716Z,8.60
2019-01-12T20:22:54.025Z,10.13
2019-01-12T20:25:28.783Z,7.87
2019-01-12T20:27:59.531Z,9.33
2019-01-12T20:31:28.024Z,10.03
2019-01-12T20:34:20.459Z,9.47
2019-01-12T20:37:40.601Z,11.97
2019-01-12T20:40:57.292Z,9.23
2019-01-12T20:44:09.765Z,6.93
2019-01-12T20:47:16.387Z,7.50
2019-01-12T20:50:04.234Z,8.00
2019-01-12T20:53:12.293Z,6.73
2019-01-12T20:56:28.025Z,11.50
2019-01-12T20:59:28.109Z,8.40
2019-01-12T21:02:24.243Z,10.33
2019-01-12T21:05:29.795Z,12.50
2019-01-12T21:08:39.441Z,11.70
2019-01-12T21:11:57.737Z,11.77
2019-01-12T21:14:49.622Z,10.87
2019-01-12T21:17:19.315Z,13.07
2019-01-12T21:19:48.611Z,9.07
2019-01-12T21:22:17.964Z,8.53
2019-01-12T21:24:47.162Z,8.67
2019-01-12T21:27:16.523Z,5.90
2019-01-12T21:29:45.783Z,4.30
2019-01-12T21:32:15.185Z,6.17
2019-01-12T21:34:44.511Z,4.67
2019-01-12T21:37:13.786Z,4.83
2019-01-12T21:39:43.008Z,5.47
2019-01-12T21:42:12.246Z,4.13
2019-01-12T21:44:41.571Z,8.17
2019-01-12T21:47:10.809Z,6.67
2019-01-12T21:49:40.039Z,4.30
2019-01-12T21:52:09.403Z,3.80
2019-01-12T21:54:38.605Z,4.80
2019-01-12T21:57:07.838Z,5.50
2019-01-12T21:59:42.377Z,5.43
2019-01-12T22:02:08.237Z,6.63
2019-01-12T22:04:37.528Z,5.27
2019-01-12T22:07:06.897Z,4.93
2019-01-12T22:09:36.171Z,7.17
2019-01-12T22:12:05.385Z,4.40
2019-01-12T22:14:34.728Z,4.67
2019-01-12T22:17:03.955Z,4.87
2019-01-12T22:19:33.207Z,4.47
2019-01-12T22:22:02.495Z,4.73
2019-01-12T22:24:31.797Z,8.43
2019-01-12T22:27:01.067Z,3.90
2019-01-12T22:29:30.357Z,6.63
2019-01-12T22:31:59.655Z,6.17
2019-01-12T22:34:28.877Z,6.87
2019-01-12T22:36:58.154Z,9.37
2019-01-12T22:39:27.487Z,8.80
2019-01-12T22:41:56.668Z,6.70
2019-01-12T22:44:26.028Z,8.53
2019-01-12T22:46:55.260Z,6.27
2019-01-12T22:49:24.586Z,5.53
2019-01-12T22:51:53.888Z,5.43
2019-01-12T22:54:23.270Z,5.97
2019-01-12T22:56:52.546Z,6.40
2019-01-12T22:59:21.870Z,8.30
2019-01-12T23:01:54.681Z,7.40
2019-01-12T23:04:25.785Z,4.80
2019-01-12T23:06:55.024Z,5.87
2019-01-12T23:09:24.347Z,4.23
2019-01-12T23:11:53.740Z,4.97
2019-01-12T23:14:23.101Z,6.80
2019-01-12T23:16:52.414Z,8.40
2019-01-12T23:19:21.686Z,5.07
2019-01-12T23:21:50.924Z,5.90
2019-01-12T23:24:20.193Z,4.33
2019-01-12T23:26:49.535Z,5.80
2019-01-12T23:29:18.759Z,4.47
2019-01-12T23:31:48.019Z,7.07
2019-01-12T23:34:17.353Z,5.13
2019-01-12T23:36:46.598Z,3.63
2019-01-12T23:39:15.908Z,5.67
2019-01-12T23:41:45.171Z,3.53
2019-01-12T23:44:14.961Z,6.57
2019-01-12T23:46:44.592Z,4.17
2019-01-12T23:49:13.831Z,4.83
2019-01-12T23:51:43.111Z,4.43
2019-01-12T23:54:12.386Z,4.83
2019-01-12T23:56:41.761Z,5.67
2019-01-12T23:59:10.961Z,8.57
